sensor_id;sensor_type;location;lat;lon;timestamp;temperature;humidity
9915;DHT22;4996;48.746;9.174;2023-01-24T00:02:21;3.70;99.90
9915;DHT22;4996;48.746;9.174;2023-01-24T00:04:47;3.70;99.90
9915;DHT22;4996;48.746;9.174;2023-01-24T00:07:13;3.80;99.90
9915;DHT22;4996;48.746;9.174;2023-01-24T00:09:38;3.80;99.90
9915;DHT22;4996;48.746;9.174;2023-01-24T00:12:04;3.70;99.90
9915;DHT22;4996;48.746;9.174;2023-01-24T00:14:30;3.60;99.90
9915;DHT22;4996;48.746;9.174;2023-01-24T00:16:55;3.70;99.90
9915;DHT22;4996;48.746;9.174;2023-01-24T00:19:21;3.80;99.90
9915;DHT22;4996;48.746;9.174;2023-01-24T00:21:46;3.50;99.90
9915;DHT22;4996;48.746;9.174;2023-01-24T00:24:12;3.60;99.90
9915;DHT22;4996;48.746;9.174;2023-01-24T00:26:37;3.70;99.90
9915;DHT22;4996;48.746;9.174;2023-01-24T00:29:03;3.70;99.90
9915;DHT22;4996;48.746;9.174;2023-01-24T00:31:28;3.80;99.90
9915;DHT22;4996;48.746;9.174;2023-01-24T00:33:54;3.80;99.90
9915;DHT22;4996;48.746;9.174;2023-01-24T00:36:19;3.80;99.90
9915;DHT22;4996;48.746;9.174;2023-01-24T00:38:45;3.70;99.90
9915;DHT22;4996;48.746;9.174;2023-01-24T00:41:10;3.60;99.90
9915;DHT22;4996;48.746;9.174;2023-01-24T00:43:36;3.50;99.90
9915;DHT22;4996;48.746;9.174;2023-01-24T00:46:04;3.70;99.90
9915;DHT22;4996;48.746;9.174;2023-01-24T00:48:30;3.70;99.90
9915;DHT22;4996;48.746;9.174;2023-01-24T00:50:56;3.60;99.90
9915;DHT22;4996;48.746;9.174;2023-01-24T00:53:21;3.60;99.90
9915;DHT22;4996;48.746;9.174;2023-01-24T00:55:48;3.60;99.90
9915;DHT22;4996;48.746;9.174;2023-01-24T00:58:14;3.50;99.90
9915;DHT22;4996;48.746;9.174;2023-01-24T01:00:40;3.40;99.90
9915;DHT22;4996;48.746;9.174;2023-01-24T01:03:07;3.50;99.90
9915;DHT22;4996;48.746;9.174;2023-01-24T01:05:35;3.40;99.90
9915;DHT22;4996;48.746;9.174;2023-01-24T01:08:00;3.40;99.90
9915;DHT22;4996;48.746;9.174;2023-01-24T01:10:26;3.50;99.90
9915;DHT22;4996;48.746;9.174;2023-01-24T01:12:51;3.40;99.90
9915;DHT22;4996;48.746;9.174;2023-01-24T01:15:17;3.30;99.90
9915;DHT22;4996;48.746;9.174;2023-01-24T01:17:42;3.30;99.90
9915;DHT22;4996;48.746;9.174;2023-01-24T01:20:08;3.40;99.90
9915;DHT22;4996;48.746;9.174;2023-01-24T01:22:34;3.30;99.90
9915;DHT22;4996;48.746;9.174;2023-01-24T01:24:59;3.50;99.90
9915;DHT22;4996;48.746;9.174;2023-01-24T01:27:25;3.50;99.90
9915;DHT22;4996;48.746;9.174;2023-01-24T01:29:50;3.50;99.90
9915;DHT22;4996;48.746;9.174;2023-01-24T01:32:16;3.50;99.90
9915;DHT22;4996;48.746;9.174;2023-01-24T01:34:41;3.40;99.90
9915;DHT22;4996;48.746;9.174;2023-01-24T01:37:07;3.50;99.90
9915;DHT22;4996;48.746;9.174;2023-01-24T01:39:32;3.50;99.90
9915;DHT22;4996;48.746;9.174;2023-01-24T01:41:58;3.60;99.90
9915;DHT22;4996;48.746;9.174;2023-01-24T01:44:26;3.70;99.90
9915;DHT22;4996;48.746;9.174;2023-01-24T01:49:31;3.80;99.90
9915;DHT22;4996;48.746;9.174;2023-01-24T01:52:03;3.80;99.90
9915;DHT22;4996;48.746;9.174;2023-01-24T01:54:38;3.80;99.90
9915;DHT22;4996;48.746;9.174;2023-01-24T01:57:13;3.90;99.90
9915;DHT22;4996;48.746;9.174;2023-01-24T01:59:49;3.90;99.90
9915;DHT22;4996;48.746;9.174;2023-01-24T02:02:18;3.90;99.90
9915;DHT22;4996;48.746;9.174;2023-01-24T02:04:49;3.90;99.90
9915;DHT22;4996;48.746;9.174;2023-01-24T02:07:23;3.90;99.90
9915;DHT22;4996;48.746;9.174;2023-01-24T02:09:52;3.90;99.90
9915;DHT22;4996;48.746;9.174;2023-01-24T02:12:28;3.70;99.90
9915;DHT22;4996;48.746;9.174;2023-01-24T02:14:57;3.60;99.90
9915;DHT22;4996;48.746;9.174;2023-01-24T02:17:42;3.70;99.90
9915;DHT22;4996;48.746;9.174;2023-01-24T02:20:38;3.70;99.90
9915;DHT22;4996;48.746;9.174;2023-01-24T02:26:10;3.80;99.90
9915;DHT22;4996;48.746;9.174;2023-01-24T02:28:37;3.70;99.90
9915;DHT22;4996;48.746;9.174;2023-01-24T02:31:04;3.60;99.90
9915;DHT22;4996;48.746;9.174;2023-01-24T02:33:30;3.70;99.90
9915;DHT22;4996;48.746;9.174;2023-01-24T02:38:41;3.70;99.90
9915;DHT22;4996;48.746;9.174;2023-01-24T02:41:09;3.70;99.90
9915;DHT22;4996;48.746;9.174;2023-01-24T02:43:39;3.70;99.90
9915;DHT22;4996;48.746;9.174;2023-01-24T02:46:06;3.80;99.90
9915;DHT22;4996;48.746;9.174;2023-01-24T02:48:32;3.80;99.90
9915;DHT22;4996;48.746;9.174;2023-01-24T02:50:57;3.60;99.90
9915;DHT22;4996;48.746;9.174;2023-01-24T02:53:42;3.60;99.90
9915;DHT22;4996;48.746;9.174;2023-01-24T02:56:09;3.60;99.90
9915;DHT22;4996;48.746;9.174;2023-01-24T02:58:54;3.50;99.90
9915;DHT22;4996;48.746;9.174;2023-01-24T03:01:21;3.50;99.90
9915;DHT22;4996;48.746;9.174;2023-01-24T03:03:48;3.50;99.90
9915;DHT22;4996;48.746;9.174;2023-01-24T03:06:15;3.50;99.90
9915;DHT22;4996;48.746;9.174;2023-01-24T03:08:41;3.40;99.90
9915;DHT22;4996;48.746;9.174;2023-01-24T03:11:08;3.40;99.90
9915;DHT22;4996;48.746;9.174;2023-01-24T03:13:34;3.60;99.90
9915;DHT22;4996;48.746;9.174;2023-01-24T03:16:19;3.60;99.90
9915;DHT22;4996;48.746;9.174;2023-01-24T03:19:04;3.60;99.90
9915;DHT22;4996;48.746;9.174;2023-01-24T03:21:48;3.50;99.90
9915;DHT22;4996;48.746;9.174;2023-01-24T03:24:32;3.50;99.90
9915;DHT22;4996;48.746;9.174;2023-01-24T03:27:16;3.50;99.90
9915;DHT22;4996;48.746;9.174;2023-01-24T03:30:01;3.40;99.90
9915;DHT22;4996;48.746;9.174;2023-01-24T03:32:46;3.50;99.90
9915;DHT22;4996;48.746;9.174;2023-01-24T03:35:30;3.60;99.90
9915;DHT22;4996;48.746;9.174;2023-01-24T03:37:56;3.60;99.90
9915;DHT22;4996;48.746;9.174;2023-01-24T03:40:40;3.50;99.90
9915;DHT22;4996;48.746;9.174;2023-01-24T03:43:06;3.60;99.90
9915;DHT22;4996;48.746;9.174;2023-01-24T03:45:34;3.60;99.90
9915;DHT22;4996;48.746;9.174;2023-01-24T03:48:06;3.60;99.90
9915;DHT22;4996;48.746;9.174;2023-01-24T03:50:39;3.60;99.90
9915;DHT22;4996;48.746;9.174;2023-01-24T03:53:26;3.60;99.90
9915;DHT22;4996;48.746;9.174;2023-01-24T03:55:53;3.50;99.90
9915;DHT22;4996;48.746;9.174;2023-01-24T03:58:19;3.50;99.90
9915;DHT22;4996;48.746;9.174;2023-01-24T04:00:45;3.60;99.90
9915;DHT22;4996;48.746;9.174;2023-01-24T04:03:11;3.70;99.90
9915;DHT22;4996;48.746;9.174;2023-01-24T04:05:36;3.60;99.90
9915;DHT22;4996;48.746;9.174;2023-01-24T04:08:03;3.50;99.90
9915;DHT22;4996;48.746;9.174;2023-01-24T04:10:29;3.60;99.90
9915;DHT22;4996;48.746;9.174;2023-01-24T04:12:55;3.60;99.90
9915;DHT22;4996;48.746;9.174;2023-01-24T04:15:24;3.50;99.90
9915;DHT22;4996;48.746;9.174;2023-01-24T04:17:50;3.60;99.90
9915;DHT22;4996;48.746;9.174;2023-01-24T04:20:16;3.60;99.90
9915;DHT22;4996;48.746;9.174;2023-01-24T04:22:42;3.60;99.90
9915;DHT22;4996;48.746;9.174;2023-01-24T04:25:08;3.60;99.90
9915;DHT22;4996;48.746;9.174;2023-01-24T04:27:35;3.60;99.90
9915;DHT22;4996;48.746;9.174;2023-01-24T04:30:00;3.60;99.90
9915;DHT22;4996;48.746;9.174;2023-01-24T04:32:27;3.60;99.90
9915;DHT22;4996;48.746;9.174;2023-01-24T04:34:53;3.60;99.90
9915;DHT22;4996;48.746;9.174;2023-01-24T04:37:18;3.70;99.90
9915;DHT22;4996;48.746;9.174;2023-01-24T04:39:44;3.60;99.90
9915;DHT22;4996;48.746;9.174;2023-01-24T04:42:09;3.60;99.90
9915;DHT22;4996;48.746;9.174;2023-01-24T04:44:35;3.50;99.90
9915;DHT22;4996;48.746;9.174;2023-01-24T04:47:00;3.40;99.90
9915;DHT22;4996;48.746;9.174;2023-01-24T04:49:26;3.40;99.90
9915;DHT22;4996;48.746;9.174;2023-01-24T04:51:51;3.40;99.90
9915;DHT22;4996;48.746;9.174;2023-01-24T04:54:17;3.50;99.90
9915;DHT22;4996;48.746;9.174;2023-01-24T04:56:43;3.60;99.90
9915;DHT22;4996;48.746;9.174;2023-01-24T04:59:11;3.50;99.90
9915;DHT22;4996;48.746;9.174;2023-01-24T05:01:37;3.50;99.90
9915;DHT22;4996;48.746;9.174;2023-01-24T05:04:03;3.50;99.90
9915;DHT22;4996;48.746;9.174;2023-01-24T05:06:30;3.60;99.90
9915;DHT22;4996;48.746;9.174;2023-01-24T05:08:56;3.60;99.90
9915;DHT22;4996;48.746;9.174;2023-01-24T05:11:22;3.60;99.90
9915;DHT22;4996;48.746;9.174;2023-01-24T05:13:49;3.60;99.90
9915;DHT22;4996;48.746;9.174;2023-01-24T05:16:15;3.60;99.90
9915;DHT22;4996;48.746;9.174;2023-01-24T05:18:41;3.80;99.90
9915;DHT22;4996;48.746;9.174;2023-01-24T05:21:07;3.70;99.90
9915;DHT22;4996;48.746;9.174;2023-01-24T05:23:33;3.70;99.90
9915;DHT22;4996;48.746;9.174;2023-01-24T05:26:00;3.70;99.90
9915;DHT22;4996;48.746;9.174;2023-01-24T05:28:26;3.70;99.90
9915;DHT22;4996;48.746;9.174;2023-01-24T05:30:51;3.70;99.90
9915;DHT22;4996;48.746;9.174;2023-01-24T05:33:17;3.70;99.90
9915;DHT22;4996;48.746;9.174;2023-01-24T05:35:42;3.70;99.90
9915;DHT22;4996;48.746;9.174;2023-01-24T05:38:09;3.70;99.90
9915;DHT22;4996;48.746;9.174;2023-01-24T05:40:35;3.70;99.90
9915;DHT22;4996;48.746;9.174;2023-01-24T05:43:00;3.60;99.90
9915;DHT22;4996;48.746;9.174;2023-01-24T05:45:26;3.40;99.90
9915;DHT22;4996;48.746;9.174;2023-01-24T05:47:52;3.50;99.90
9915;DHT22;4996;48.746;9.174;2023-01-24T05:50:17;3.60;99.90
9915;DHT22;4996;48.746;9.174;2023-01-24T05:52:43;3.50;99.90
9915;DHT22;4996;48.746;9.174;2023-01-24T05:55:08;3.50;99.90
9915;DHT22;4996;48.746;9.174;2023-01-24T05:57:34;3.50;99.90
9915;DHT22;4996;48.746;9.174;2023-01-24T06:00:03;3.40;99.90
9915;DHT22;4996;48.746;9.174;2023-01-24T06:02:29;3.20;99.90
9915;DHT22;4996;48.746;9.174;2023-01-24T06:04:55;3.30;99.90
9915;DHT22;4996;48.746;9.174;2023-01-24T06:07:20;3.40;99.90
9915;DHT22;4996;48.746;9.174;2023-01-24T06:09:46;3.40;99.90
9915;DHT22;4996;48.746;9.174;2023-01-24T06:12:11;3.40;99.90
9915;DHT22;4996;48.746;9.174;2023-01-24T06:14:37;3.50;99.90
9915;DHT22;4996;48.746;9.174;2023-01-24T06:17:02;3.50;99.90
9915;DHT22;4996;48.746;9.174;2023-01-24T06:19:28;3.50;99.90
9915;DHT22;4996;48.746;9.174;2023-01-24T06:22:16;3.50;99.90
9915;DHT22;4996;48.746;9.174;2023-01-24T06:24:42;3.50;99.90
9915;DHT22;4996;48.746;9.174;2023-01-24T06:27:08;3.50;99.90
9915;DHT22;4996;48.746;9.174;2023-01-24T06:29:34;3.50;99.90
9915;DHT22;4996;48.746;9.174;2023-01-24T06:37:37;3.60;99.90
9915;DHT22;4996;48.746;9.174;2023-01-24T06:40:10;3.70;99.90
9915;DHT22;4996;48.746;9.174;2023-01-24T06:42:36;3.60;99.90
9915;DHT22;4996;48.746;9.174;2023-01-24T06:45:02;3.70;99.90
9915;DHT22;4996;48.746;9.174;2023-01-24T06:47:28;3.70;99.90
9915;DHT22;4996;48.746;9.174;2023-01-24T06:49:54;3.70;99.90
9915;DHT22;4996;48.746;9.174;2023-01-24T06:52:20;3.60;99.90
9915;DHT22;4996;48.746;9.174;2023-01-24T06:54:45;4.00;99.90
9915;DHT22;4996;48.746;9.174;2023-01-24T06:57:11;3.80;99.90
9915;DHT22;4996;48.746;9.174;2023-01-24T06:59:36;3.40;99.90
9915;DHT22;4996;48.746;9.174;2023-01-24T07:02:02;3.40;99.90
9915;DHT22;4996;48.746;9.174;2023-01-24T07:04:28;3.50;99.90
9915;DHT22;4996;48.746;9.174;2023-01-24T07:06:54;3.40;99.90
9915;DHT22;4996;48.746;9.174;2023-01-24T07:09:20;3.50;99.90
9915;DHT22;4996;48.746;9.174;2023-01-24T07:11:46;3.50;99.90
9915;DHT22;4996;48.746;9.174;2023-01-24T07:14:18;3.60;99.90
9915;DHT22;4996;48.746;9.174;2023-01-24T07:16:44;3.30;99.90
9915;DHT22;4996;48.746;9.174;2023-01-24T07:19:14;3.50;99.90
9915;DHT22;4996;48.746;9.174;2023-01-24T07:21:40;3.50;99.90
9915;DHT22;4996;48.746;9.174;2023-01-24T07:24:21;3.30;99.90
9915;DHT22;4996;48.746;9.174;2023-01-24T07:26:47;3.40;99.90
9915;DHT22;4996;48.746;9.174;2023-01-24T07:29:20;3.40;99.90
9915;DHT22;4996;48.746;9.174;2023-01-24T07:31:46;3.50;99.90
9915;DHT22;4996;48.746;9.174;2023-01-24T07:34:14;3.70;99.90
9915;DHT22;4996;48.746;9.174;2023-01-24T07:36:41;3.70;99.90
9915;DHT22;4996;48.746;9.174;2023-01-24T07:39:07;4.00;99.90
9915;DHT22;4996;48.746;9.174;2023-01-24T07:41:33;3.80;99.90
9915;DHT22;4996;48.746;9.174;2023-01-24T07:43:59;3.80;99.90
9915;DHT22;4996;48.746;9.174;2023-01-24T07:46:25;3.80;99.90
9915;DHT22;4996;48.746;9.174;2023-01-24T07:48:50;3.60;99.90
9915;DHT22;4996;48.746;9.174;2023-01-24T07:51:16;3.70;99.90
9915;DHT22;4996;48.746;9.174;2023-01-24T07:53:41;4.00;99.90
9915;DHT22;4996;48.746;9.174;2023-01-24T07:56:07;3.70;99.90
9915;DHT22;4996;48.746;9.174;2023-01-24T07:58:32;3.60;99.90
9915;DHT22;4996;48.746;9.174;2023-01-24T08:00:58;4.00;99.90
9915;DHT22;4996;48.746;9.174;2023-01-24T08:03:24;3.30;99.90
9915;DHT22;4996;48.746;9.174;2023-01-24T08:05:49;3.40;99.90
9915;DHT22;4996;48.746;9.174;2023-01-24T08:08:15;3.40;99.90
9915;DHT22;4996;48.746;9.174;2023-01-24T08:10:40;3.60;99.90
9915;DHT22;4996;48.746;9.174;2023-01-24T08:13:06;3.30;99.90
9915;DHT22;4996;48.746;9.174;2023-01-24T08:15:31;3.40;99.90
9915;DHT22;4996;48.746;9.174;2023-01-24T08:17:57;3.40;99.90
9915;DHT22;4996;48.746;9.174;2023-01-24T08:20:22;3.30;99.90
9915;DHT22;4996;48.746;9.174;2023-01-24T08:22:48;3.30;99.90
9915;DHT22;4996;48.746;9.174;2023-01-24T08:25:13;3.30;99.90
9915;DHT22;4996;48.746;9.174;2023-01-24T08:27:42;3.50;99.90
9915;DHT22;4996;48.746;9.174;2023-01-24T08:30:11;3.90;99.90
9915;DHT22;4996;48.746;9.174;2023-01-24T08:32:37;3.60;99.90
9915;DHT22;4996;48.746;9.174;2023-01-24T08:35:04;3.70;99.90
9915;DHT22;4996;48.746;9.174;2023-01-24T08:37:29;3.70;99.90
9915;DHT22;4996;48.746;9.174;2023-01-24T08:39:55;4.10;99.90
9915;DHT22;4996;48.746;9.174;2023-01-24T08:42:23;3.90;99.90
9915;DHT22;4996;48.746;9.174;2023-01-24T08:44:49;3.90;99.90
9915;DHT22;4996;48.746;9.174;2023-01-24T08:47:15;3.80;99.90
9915;DHT22;4996;48.746;9.174;2023-01-24T08:49:40;3.90;99.90
9915;DHT22;4996;48.746;9.174;2023-01-24T08:52:06;3.60;99.90
9915;DHT22;4996;48.746;9.174;2023-01-24T08:54:32;4.00;99.90
9915;DHT22;4996;48.746;9.174;2023-01-24T08:56:58;3.80;99.90
9915;DHT22;4996;48.746;9.174;2023-01-24T08:59:24;4.00;99.90
9915;DHT22;4996;48.746;9.174;2023-01-24T09:01:50;3.80;99.90
9915;DHT22;4996;48.746;9.174;2023-01-24T09:04:15;3.70;99.90
9915;DHT22;4996;48.746;9.174;2023-01-24T09:06:41;3.80;99.90
9915;DHT22;4996;48.746;9.174;2023-01-24T09:09:06;3.80;99.90
9915;DHT22;4996;48.746;9.174;2023-01-24T09:11:32;3.80;99.90
9915;DHT22;4996;48.746;9.174;2023-01-24T09:13:57;3.80;99.90
9915;DHT22;4996;48.746;9.174;2023-01-24T09:16:23;4.00;99.90
9915;DHT22;4996;48.746;9.174;2023-01-24T09:18:49;3.80;99.90
9915;DHT22;4996;48.746;9.174;2023-01-24T09:21:16;4.00;99.90
9915;DHT22;4996;48.746;9.174;2023-01-24T09:23:42;4.00;99.90
9915;DHT22;4996;48.746;9.174;2023-01-24T09:26:07;4.20;99.90
9915;DHT22;4996;48.746;9.174;2023-01-24T09:28:33;4.00;99.90
9915;DHT22;4996;48.746;9.174;2023-01-24T09:31:00;4.30;99.90
9915;DHT22;4996;48.746;9.174;2023-01-24T09:33:27;4.00;99.90
9915;DHT22;4996;48.746;9.174;2023-01-24T09:35:57;4.00;99.90
9915;DHT22;4996;48.746;9.174;2023-01-24T09:38:24;3.70;99.90
9915;DHT22;4996;48.746;9.174;2023-01-24T09:43:53;4.00;99.90
9915;DHT22;4996;48.746;9.174;2023-01-24T09:51:34;4.20;99.90
9915;DHT22;4996;48.746;9.174;2023-01-24T09:54:02;4.50;99.90
9915;DHT22;4996;48.746;9.174;2023-01-24T09:56:40;4.20;99.90
9915;DHT22;4996;48.746;9.174;2023-01-24T09:59:20;4.30;99.90
9915;DHT22;4996;48.746;9.174;2023-01-24T10:01:48;4.20;99.90
9915;DHT22;4996;48.746;9.174;2023-01-24T10:04:19;4.40;99.90
9915;DHT22;4996;48.746;9.174;2023-01-24T10:15:34;4.30;99.90
9915;DHT22;4996;48.746;9.174;2023-01-24T10:23:54;4.40;99.90
9915;DHT22;4996;48.746;9.174;2023-01-24T10:26:35;4.40;99.90
9915;DHT22;4996;48.746;9.174;2023-01-24T10:29:14;4.40;99.90
9915;DHT22;4996;48.746;9.174;2023-01-24T10:34:47;4.00;99.90
9915;DHT22;4996;48.746;9.174;2023-01-24T10:37:24;4.40;99.90
9915;DHT22;4996;48.746;9.174;2023-01-24T10:39:50;4.10;99.90
9915;DHT22;4996;48.746;9.174;2023-01-24T10:42:23;4.30;99.90
9915;DHT22;4996;48.746;9.174;2023-01-24T10:44:51;4.40;99.90
9915;DHT22;4996;48.746;9.174;2023-01-24T10:49:59;4.30;99.90
9915;DHT22;4996;48.746;9.174;2023-01-24T10:52:25;4.30;99.90
9915;DHT22;4996;48.746;9.174;2023-01-24T10:54:55;4.30;99.90
9915;DHT22;4996;48.746;9.174;2023-01-24T10:57:48;4.30;99.90
9915;DHT22;4996;48.746;9.174;2023-01-24T11:02:40;4.60;99.90
9915;DHT22;4996;48.746;9.174;2023-01-24T11:05:12;4.70;99.90
9915;DHT22;4996;48.746;9.174;2023-01-24T11:07:50;4.70;99.90
9915;DHT22;4996;48.746;9.174;2023-01-24T11:10:26;4.70;99.90
9915;DHT22;4996;48.746;9.174;2023-01-24T11:12:54;4.70;99.90
9915;DHT22;4996;48.746;9.174;2023-01-24T11:15:27;4.70;99.90
9915;DHT22;4996;48.746;9.174;2023-01-24T11:17:58;4.70;99.90
9915;DHT22;4996;48.746;9.174;2023-01-24T11:20:31;4.60;99.90
9915;DHT22;4996;48.746;9.174;2023-01-24T11:23:03;4.60;99.90
9915;DHT22;4996;48.746;9.174;2023-01-24T11:25:29;4.70;99.90
9915;DHT22;4996;48.746;9.174;2023-01-24T11:27:54;4.90;99.90
9915;DHT22;4996;48.746;9.174;2023-01-24T11:30:21;4.70;99.90
9915;DHT22;4996;48.746;9.174;2023-01-24T11:33:05;4.80;99.90
9915;DHT22;4996;48.746;9.174;2023-01-24T11:35:35;4.80;99.90
9915;DHT22;4996;48.746;9.174;2023-01-24T11:38:32;4.90;99.90
9915;DHT22;4996;48.746;9.174;2023-01-24T11:49:24;4.90;99.90
9915;DHT22;4996;48.746;9.174;2023-01-24T11:51:57;5.10;99.90
9915;DHT22;4996;48.746;9.174;2023-01-24T12:02:54;5.10;99.90
9915;DHT22;4996;48.746;9.174;2023-01-24T12:08:38;4.80;99.90
9915;DHT22;4996;48.746;9.174;2023-01-24T12:11:26;4.90;99.90
9915;DHT22;4996;48.746;9.174;2023-01-24T12:14:04;5.00;99.90
9915;DHT22;4996;48.746;9.174;2023-01-24T12:20:02;4.90;99.90
9915;DHT22;4996;48.746;9.174;2023-01-24T12:22:33;4.80;99.90
9915;DHT22;4996;48.746;9.174;2023-01-24T12:25:27;4.90;99.90
9915;DHT22;4996;48.746;9.174;2023-01-24T12:27:57;5.10;99.90
9915;DHT22;4996;48.746;9.174;2023-01-24T12:30:41;5.30;99.90
9915;DHT22;4996;48.746;9.174;2023-01-24T12:33:29;5.30;99.90
9915;DHT22;4996;48.746;9.174;2023-01-24T12:36:18;4.40;99.90
9915;DHT22;4996;48.746;9.174;2023-01-24T12:38:52;4.40;99.90
9915;DHT22;4996;48.746;9.174;2023-01-24T12:41:32;4.50;99.90
9915;DHT22;4996;48.746;9.174;2023-01-24T12:44:23;4.30;99.90
9915;DHT22;4996;48.746;9.174;2023-01-24T12:49:53;4.60;99.90
9915;DHT22;4996;48.746;9.174;2023-01-24T12:52:33;4.60;99.90
9915;DHT22;4996;48.746;9.174;2023-01-24T12:55:08;4.50;99.90
9915;DHT22;4996;48.746;9.174;2023-01-24T12:57:46;4.30;99.90
9915;DHT22;4996;48.746;9.174;2023-01-24T13:00:20;4.20;99.90
9915;DHT22;4996;48.746;9.174;2023-01-24T13:03:23;4.10;99.90
9915;DHT22;4996;48.746;9.174;2023-01-24T13:06:05;4.30;99.90
9915;DHT22;4996;48.746;9.174;2023-01-24T13:11:44;3.90;99.90
9915;DHT22;4996;48.746;9.174;2023-01-24T13:14:23;4.20;99.90
9915;DHT22;4996;48.746;9.174;2023-01-24T13:25:01;4.30;99.90
9915;DHT22;4996;48.746;9.174;2023-01-24T13:28:13;4.40;99.90
9915;DHT22;4996;48.746;9.174;2023-01-24T13:33:40;3.90;99.90
9915;DHT22;4996;48.746;9.174;2023-01-24T13:36:18;3.90;99.90
9915;DHT22;4996;48.746;9.174;2023-01-24T13:38:45;3.90;99.90
9915;DHT22;4996;48.746;9.174;2023-01-24T13:41:16;3.90;99.90
9915;DHT22;4996;48.746;9.174;2023-01-24T13:51:56;3.70;99.90
9915;DHT22;4996;48.746;9.174;2023-01-24T13:54:41;3.60;99.90
9915;DHT22;4996;48.746;9.174;2023-01-24T14:02:39;4.00;99.90
9915;DHT22;4996;48.746;9.174;2023-01-24T14:08:14;4.20;99.90
9915;DHT22;4996;48.746;9.174;2023-01-24T14:10:49;4.30;99.90
9915;DHT22;4996;48.746;9.174;2023-01-24T14:13:52;4.40;99.90
9915;DHT22;4996;48.746;9.174;2023-01-24T14:22:06;4.00;99.90
9915;DHT22;4996;48.746;9.174;2023-01-24T14:24:59;3.90;99.90
9915;DHT22;4996;48.746;9.174;2023-01-24T14:27:45;3.70;99.90
9915;DHT22;4996;48.746;9.174;2023-01-24T14:35:28;3.90;99.90
9915;DHT22;4996;48.746;9.174;2023-01-24T14:38:10;3.90;99.90
9915;DHT22;4996;48.746;9.174;2023-01-24T14:40:38;4.00;99.90
9915;DHT22;4996;48.746;9.174;2023-01-24T14:43:05;4.00;99.90
9915;DHT22;4996;48.746;9.174;2023-01-24T14:45:32;3.80;99.90
9915;DHT22;4996;48.746;9.174;2023-01-24T14:47:59;3.40;99.90
9915;DHT22;4996;48.746;9.174;2023-01-24T14:50:29;3.40;99.90
9915;DHT22;4996;48.746;9.174;2023-01-24T14:52:58;3.60;99.90
9915;DHT22;4996;48.746;9.174;2023-01-24T14:57:56;3.90;99.90
9915;DHT22;4996;48.746;9.174;2023-01-24T15:00:22;4.00;99.90
9915;DHT22;4996;48.746;9.174;2023-01-24T15:02:56;4.00;99.90
9915;DHT22;4996;48.746;9.174;2023-01-24T15:07:48;3.90;99.90
9915;DHT22;4996;48.746;9.174;2023-01-24T15:10:14;3.90;99.90
9915;DHT22;4996;48.746;9.174;2023-01-24T15:12:40;4.10;99.90
9915;DHT22;4996;48.746;9.174;2023-01-24T15:15:14;4.00;99.90
9915;DHT22;4996;48.746;9.174;2023-01-24T15:17:45;4.10;99.90
9915;DHT22;4996;48.746;9.174;2023-01-24T15:20:16;4.60;99.90
9915;DHT22;4996;48.746;9.174;2023-01-24T15:22:51;4.20;99.90
9915;DHT22;4996;48.746;9.174;2023-01-24T15:25:25;4.10;99.90
9915;DHT22;4996;48.746;9.174;2023-01-24T15:27:52;4.30;99.90
9915;DHT22;4996;48.746;9.174;2023-01-24T15:30:22;4.30;99.90
9915;DHT22;4996;48.746;9.174;2023-01-24T15:32:49;4.30;99.90
9915;DHT22;4996;48.746;9.174;2023-01-24T15:35:31;4.30;99.90
9915;DHT22;4996;48.746;9.174;2023-01-24T15:40:24;4.40;99.90
9915;DHT22;4996;48.746;9.174;2023-01-24T15:42:50;4.40;99.90
9915;DHT22;4996;48.746;9.174;2023-01-24T15:45:37;4.20;99.90
9915;DHT22;4996;48.746;9.174;2023-01-24T15:48:22;4.20;99.90
9915;DHT22;4996;48.746;9.174;2023-01-24T15:50:56;4.40;99.90
9915;DHT22;4996;48.746;9.174;2023-01-24T15:53:31;4.30;99.90
9915;DHT22;4996;48.746;9.174;2023-01-24T15:56:01;4.00;99.90
9915;DHT22;4996;48.746;9.174;2023-01-24T15:58:28;4.00;99.90
9915;DHT22;4996;48.746;9.174;2023-01-24T16:00:56;3.90;99.90
9915;DHT22;4996;48.746;9.174;2023-01-24T16:03:22;4.00;99.90
9915;DHT22;4996;48.746;9.174;2023-01-24T16:05:47;3.90;99.90
9915;DHT22;4996;48.746;9.174;2023-01-24T16:08:13;3.80;99.90
9915;DHT22;4996;48.746;9.174;2023-01-24T16:10:39;3.90;99.90
9915;DHT22;4996;48.746;9.174;2023-01-24T16:13:09;3.70;99.90
9915;DHT22;4996;48.746;9.174;2023-01-24T16:15:36;3.70;99.90
9915;DHT22;4996;48.746;9.174;2023-01-24T16:18:03;3.70;99.90
9915;DHT22;4996;48.746;9.174;2023-01-24T16:20:28;3.80;99.90
9915;DHT22;4996;48.746;9.174;2023-01-24T16:22:54;3.60;99.90
9915;DHT22;4996;48.746;9.174;2023-01-24T16:25:20;3.50;99.90
9915;DHT22;4996;48.746;9.174;2023-01-24T16:27:47;3.50;99.90
9915;DHT22;4996;48.746;9.174;2023-01-24T16:30:19;3.30;99.90
9915;DHT22;4996;48.746;9.174;2023-01-24T16:32:45;3.30;99.90
9915;DHT22;4996;48.746;9.174;2023-01-24T16:35:12;3.20;99.90
9915;DHT22;4996;48.746;9.174;2023-01-24T16:37:37;3.70;99.90
9915;DHT22;4996;48.746;9.174;2023-01-24T16:40:03;3.20;99.90
9915;DHT22;4996;48.746;9.174;2023-01-24T16:42:29;3.40;99.90
9915;DHT22;4996;48.746;9.174;2023-01-24T16:44:56;3.40;99.90
9915;DHT22;4996;48.746;9.174;2023-01-24T16:47:24;3.40;99.90
9915;DHT22;4996;48.746;9.174;2023-01-24T16:49:56;3.40;99.90
9915;DHT22;4996;48.746;9.174;2023-01-24T16:52:23;3.50;99.90
9915;DHT22;4996;48.746;9.174;2023-01-24T16:54:49;3.90;99.90
9915;DHT22;4996;48.746;9.174;2023-01-24T16:57:15;3.90;99.90
9915;DHT22;4996;48.746;9.174;2023-01-24T16:59:41;3.50;99.90
9915;DHT22;4996;48.746;9.174;2023-01-24T17:02:08;3.50;99.90
9915;DHT22;4996;48.746;9.174;2023-01-24T17:04:33;3.60;99.90
9915;DHT22;4996;48.746;9.174;2023-01-24T17:06:59;3.50;99.90
9915;DHT22;4996;48.746;9.174;2023-01-24T17:09:29;3.40;99.90
9915;DHT22;4996;48.746;9.174;2023-01-24T17:11:54;3.50;99.90
9915;DHT22;4996;48.746;9.174;2023-01-24T17:14:20;3.40;99.90
9915;DHT22;4996;48.746;9.174;2023-01-24T17:16:47;3.30;99.90
9915;DHT22;4996;48.746;9.174;2023-01-24T17:19:13;3.20;99.90
9915;DHT22;4996;48.746;9.174;2023-01-24T17:21:38;3.50;99.90
9915;DHT22;4996;48.746;9.174;2023-01-24T17:24:04;3.20;99.90
9915;DHT22;4996;48.746;9.174;2023-01-24T17:26:29;3.10;99.90
9915;DHT22;4996;48.746;9.174;2023-01-24T17:28:55;3.00;99.90
9915;DHT22;4996;48.746;9.174;2023-01-24T17:31:20;3.10;99.90
9915;DHT22;4996;48.746;9.174;2023-01-24T17:33:47;3.00;99.90
9915;DHT22;4996;48.746;9.174;2023-01-24T17:36:13;3.10;99.90
9915;DHT22;4996;48.746;9.174;2023-01-24T17:38:42;3.00;99.90
9915;DHT22;4996;48.746;9.174;2023-01-24T17:41:16;3.10;99.90
9915;DHT22;4996;48.746;9.174;2023-01-24T17:43:42;3.30;99.90
9915;DHT22;4996;48.746;9.174;2023-01-24T17:46:08;3.40;99.90
9915;DHT22;4996;48.746;9.174;2023-01-24T17:48:34;3.30;99.90
9915;DHT22;4996;48.746;9.174;2023-01-24T17:51:11;3.30;99.90
9915;DHT22;4996;48.746;9.174;2023-01-24T17:53:38;3.40;99.90
9915;DHT22;4996;48.746;9.174;2023-01-24T17:56:04;3.40;99.90
9915;DHT22;4996;48.746;9.174;2023-01-24T17:58:30;3.50;99.90
9915;DHT22;4996;48.746;9.174;2023-01-24T18:00:56;3.60;99.90
9915;DHT22;4996;48.746;9.174;2023-01-24T18:03:22;3.70;99.90
9915;DHT22;4996;48.746;9.174;2023-01-24T18:05:48;3.60;99.90
9915;DHT22;4996;48.746;9.174;2023-01-24T18:08:14;3.60;99.90
9915;DHT22;4996;48.746;9.174;2023-01-24T18:10:40;3.60;99.90
9915;DHT22;4996;48.746;9.174;2023-01-24T18:13:06;3.60;99.90
9915;DHT22;4996;48.746;9.174;2023-01-24T18:15:33;3.80;99.90
9915;DHT22;4996;48.746;9.174;2023-01-24T18:17:58;3.60;99.90
9915;DHT22;4996;48.746;9.174;2023-01-24T18:20:24;3.70;99.90
9915;DHT22;4996;48.746;9.174;2023-01-24T18:22:49;3.60;99.90
9915;DHT22;4996;48.746;9.174;2023-01-24T18:25:15;3.60;99.90
9915;DHT22;4996;48.746;9.174;2023-01-24T18:27:40;3.40;99.90
9915;DHT22;4996;48.746;9.174;2023-01-24T18:30:06;3.50;99.90
9915;DHT22;4996;48.746;9.174;2023-01-24T18:32:32;3.50;99.90